Hartsfield Jackson Atlanta International Airport
KATL : now visible

Airfield :











YOU CAN JOIN US ON...

 
LOGIN :

Register | Disclaimer

   EN    FR    IT 

 









Legend :    VFR   Marginal VFR   IFR   Intensive IFR   Very Intensive IFR
Visi :
Ceiling :
>= 8 km
>= 3000ft
5 to 8 km
1000 to 3000 ft
1500m to 5 km
500 to 1000 ft
800 to 1500m
200 to 500 ft
< 800m
< 200 ft
Symbols :   Thunderstorms  Fog  Heavy snow  Heavy precipitations  Wind > 20 kt






- Airport Elevation : 1026 ft
- IATA code : ATL


KATL - Hartsfield Jackson Atlanta International

CURRENT METAR :
  • 142052Z 26012G18KT 10SM SCT033 13/04 A2980 RMK AO2 SLP093 T01280044 53004

EXPIRED METARs :
  • 141952Z 25009KT 10SM SCT025 13/04 A2978 RMK AO2 SLP086 T01280039
  • 141852Z 28010KT 10SM SCT025 12/05 A2978 RMK AO2 SLP085 T01220050

TAF KATL
Valid from the 14 at 20:00 until the 16 at 00:00 UTC


141933Z 1420/1524 28010KT P6SM SCT025
FM150000 28006KT P6SM FEW030 SCT120
FM150900 26004KT P6SM SCT030 BKN040
FM151100 24003KT P6SM SCT015 BKN025
FM151600 21004KT P6SM SCT015 BKN035
FM152100 17005KT P6SM FEW030



MET'MAP, your aeronautical weather chart ! - Copyright ORBIFLY December 2007 - Disclaimer

ORBIFLY MET'MAP TEAM :

Programming & Development : Alexandra Zaïnal
Concept & original design : Baudouin d'Aumeries
Assistance for programming : Marc-Olivier Méhu
Technical & hardware support : Manuel Goepfert

Contact : metmap@orbifly.com




SOURCES & CREDITS :

   NOAA       Earth
Advisory